sensor_id;sensor_type;location;lat;lon;timestamp;temperature;humidity
42479;DHT22;28110;47.080;9.476;2023-07-29T00:00:43;19.10;99.90
42479;DHT22;28110;47.080;9.476;2023-07-29T00:03:09;19.00;99.90
42479;DHT22;28110;47.080;9.476;2023-07-29T00:05:36;19.10;99.90
42479;DHT22;28110;47.080;9.476;2023-07-29T00:08:02;19.10;99.90
42479;DHT22;28110;47.080;9.476;2023-07-29T00:10:30;19.10;99.90
42479;DHT22;28110;47.080;9.476;2023-07-29T00:12:56;19.20;99.90
42479;DHT22;28110;47.080;9.476;2023-07-29T00:15:21;19.10;99.90
42479;DHT22;28110;47.080;9.476;2023-07-29T00:17:47;19.10;99.90
42479;DHT22;28110;47.080;9.476;2023-07-29T00:20:12;19.00;99.90
42479;DHT22;28110;47.080;9.476;2023-07-29T00:22:38;19.00;99.90
42479;DHT22;28110;47.080;9.476;2023-07-29T00:25:04;18.90;99.90
42479;DHT22;28110;47.080;9.476;2023-07-29T00:27:29;18.90;99.90
42479;DHT22;28110;47.080;9.476;2023-07-29T00:29:55;18.90;99.90
42479;DHT22;28110;47.080;9.476;2023-07-29T00:32:20;18.90;99.90
42479;DHT22;28110;47.080;9.476;2023-07-29T00:34:46;18.90;99.90
42479;DHT22;28110;47.080;9.476;2023-07-29T00:37:11;18.80;99.90
42479;DHT22;28110;47.080;9.476;2023-07-29T00:39:37;18.70;99.90
42479;DHT22;28110;47.080;9.476;2023-07-29T00:42:04;18.90;99.90
42479;DHT22;28110;47.080;9.476;2023-07-29T00:44:29;18.90;99.90
42479;DHT22;28110;47.080;9.476;2023-07-29T00:46:57;18.90;99.90
42479;DHT22;28110;47.080;9.476;2023-07-29T00:49:24;19.00;99.90
42479;DHT22;28110;47.080;9.476;2023-07-29T00:51:50;19.00;99.90
42479;DHT22;28110;47.080;9.476;2023-07-29T00:54:15;19.00;99.90
42479;DHT22;28110;47.080;9.476;2023-07-29T00:56:41;19.00;99.90
42479;DHT22;28110;47.080;9.476;2023-07-29T00:59:08;18.90;99.90
42479;DHT22;28110;47.080;9.476;2023-07-29T01:01:33;18.90;99.90
42479;DHT22;28110;47.080;9.476;2023-07-29T01:03:59;18.90;99.90
42479;DHT22;28110;47.080;9.476;2023-07-29T01:06:29;18.80;99.90
42479;DHT22;28110;47.080;9.476;2023-07-29T01:09:27;18.80;99.90
42479;DHT22;28110;47.080;9.476;2023-07-29T01:12:22;18.80;99.90
42479;DHT22;28110;47.080;9.476;2023-07-29T01:17:48;18.70;99.90
42479;DHT22;28110;47.080;9.476;2023-07-29T01:20:15;18.80;99.90
42479;DHT22;28110;47.080;9.476;2023-07-29T01:22:41;18.80;99.90
42479;DHT22;28110;47.080;9.476;2023-07-29T01:25:08;18.80;99.90
42479;DHT22;28110;47.080;9.476;2023-07-29T01:27:33;18.70;99.90
42479;DHT22;28110;47.080;9.476;2023-07-29T01:30:00;18.80;99.90
42479;DHT22;28110;47.080;9.476;2023-07-29T01:37:51;18.80;99.90
42479;DHT22;28110;47.080;9.476;2023-07-29T01:40:18;18.70;99.90
42479;DHT22;28110;47.080;9.476;2023-07-29T01:42:44;18.70;99.90
42479;DHT22;28110;47.080;9.476;2023-07-29T01:45:11;18.70;99.90
42479;DHT22;28110;47.080;9.476;2023-07-29T01:47:36;18.60;99.90
42479;DHT22;28110;47.080;9.476;2023-07-29T01:50:06;18.70;99.90
42479;DHT22;28110;47.080;9.476;2023-07-29T01:52:31;18.70;99.90
42479;DHT22;28110;47.080;9.476;2023-07-29T01:54:57;18.70;99.90
42479;DHT22;28110;47.080;9.476;2023-07-29T01:57:22;18.70;99.90
42479;DHT22;28110;47.080;9.476;2023-07-29T01:59:48;18.70;99.90
42479;DHT22;28110;47.080;9.476;2023-07-29T02:02:13;18.70;99.90
42479;DHT22;28110;47.080;9.476;2023-07-29T02:04:39;18.70;99.90
42479;DHT22;28110;47.080;9.476;2023-07-29T02:07:05;18.70;99.90
42479;DHT22;28110;47.080;9.476;2023-07-29T02:09:30;18.70;99.90
42479;DHT22;28110;47.080;9.476;2023-07-29T02:11:57;18.70;99.90
42479;DHT22;28110;47.080;9.476;2023-07-29T02:14:23;18.70;99.90
42479;DHT22;28110;47.080;9.476;2023-07-29T02:16:48;18.70;99.90
42479;DHT22;28110;47.080;9.476;2023-07-29T02:19:14;18.60;99.90
42479;DHT22;28110;47.080;9.476;2023-07-29T02:21:40;18.60;99.90
42479;DHT22;28110;47.080;9.476;2023-07-29T02:24:05;18.60;99.90
42479;DHT22;28110;47.080;9.476;2023-07-29T02:26:31;18.60;99.90
42479;DHT22;28110;47.080;9.476;2023-07-29T02:28:56;18.60;99.90
42479;DHT22;28110;47.080;9.476;2023-07-29T02:31:24;18.60;99.90
42479;DHT22;28110;47.080;9.476;2023-07-29T02:33:49;18.70;99.90
42479;DHT22;28110;47.080;9.476;2023-07-29T02:36:16;18.70;99.90
42479;DHT22;28110;47.080;9.476;2023-07-29T02:38:42;18.80;99.90
42479;DHT22;28110;47.080;9.476;2023-07-29T02:41:08;18.80;99.90
42479;DHT22;28110;47.080;9.476;2023-07-29T02:43:38;18.80;99.90
42479;DHT22;28110;47.080;9.476;2023-07-29T02:46:04;18.90;99.90
42479;DHT22;28110;47.080;9.476;2023-07-29T02:48:30;18.90;99.90
42479;DHT22;28110;47.080;9.476;2023-07-29T02:50:56;18.80;99.90
42479;DHT22;28110;47.080;9.476;2023-07-29T02:53:24;18.80;99.90
42479;DHT22;28110;47.080;9.476;2023-07-29T02:55:50;18.80;99.90
42479;DHT22;28110;47.080;9.476;2023-07-29T02:58:16;18.80;99.90
42479;DHT22;28110;47.080;9.476;2023-07-29T03:00:42;18.80;99.90
42479;DHT22;28110;47.080;9.476;2023-07-29T03:03:08;18.80;99.90
42479;DHT22;28110;47.080;9.476;2023-07-29T03:05:35;18.80;99.90
42479;DHT22;28110;47.080;9.476;2023-07-29T03:08:00;18.80;99.90
42479;DHT22;28110;47.080;9.476;2023-07-29T03:10:26;18.90;99.90
42479;DHT22;28110;47.080;9.476;2023-07-29T03:12:54;18.90;99.90
42479;DHT22;28110;47.080;9.476;2023-07-29T03:15:23;19.00;99.90
42479;DHT22;28110;47.080;9.476;2023-07-29T03:17:49;19.00;99.90
42479;DHT22;28110;47.080;9.476;2023-07-29T03:20:15;19.00;99.90
42479;DHT22;28110;47.080;9.476;2023-07-29T03:22:43;19.00;99.90
42479;DHT22;28110;47.080;9.476;2023-07-29T03:25:08;19.00;99.90
42479;DHT22;28110;47.080;9.476;2023-07-29T03:27:34;18.90;99.90
42479;DHT22;28110;47.080;9.476;2023-07-29T03:30:05;18.80;99.90
42479;DHT22;28110;47.080;9.476;2023-07-29T03:32:30;18.80;99.90
42479;DHT22;28110;47.080;9.476;2023-07-29T03:34:56;18.80;99.90
42479;DHT22;28110;47.080;9.476;2023-07-29T03:37:21;18.70;99.90
42479;DHT22;28110;47.080;9.476;2023-07-29T03:39:47;18.70;99.90
42479;DHT22;28110;47.080;9.476;2023-07-29T03:42:13;18.70;99.90
42479;DHT22;28110;47.080;9.476;2023-07-29T03:44:38;18.60;99.90
42479;DHT22;28110;47.080;9.476;2023-07-29T03:47:07;18.60;99.90
42479;DHT22;28110;47.080;9.476;2023-07-29T03:49:33;18.60;99.90
42479;DHT22;28110;47.080;9.476;2023-07-29T03:51:58;18.60;99.90
42479;DHT22;28110;47.080;9.476;2023-07-29T03:54:24;18.70;99.90
42479;DHT22;28110;47.080;9.476;2023-07-29T03:56:49;18.70;99.90
42479;DHT22;28110;47.080;9.476;2023-07-29T03:59:15;18.70;99.90
42479;DHT22;28110;47.080;9.476;2023-07-29T04:01:40;18.70;99.90
42479;DHT22;28110;47.080;9.476;2023-07-29T04:04:06;18.70;99.90
42479;DHT22;28110;47.080;9.476;2023-07-29T04:06:31;18.70;99.90
42479;DHT22;28110;47.080;9.476;2023-07-29T04:08:57;18.70;99.90
42479;DHT22;28110;47.080;9.476;2023-07-29T04:11:23;18.70;99.90
42479;DHT22;28110;47.080;9.476;2023-07-29T04:13:49;18.70;99.90
42479;DHT22;28110;47.080;9.476;2023-07-29T04:16:15;18.70;99.90
42479;DHT22;28110;47.080;9.476;2023-07-29T04:18:42;18.70;99.90
42479;DHT22;28110;47.080;9.476;2023-07-29T04:21:07;18.70;99.90
42479;DHT22;28110;47.080;9.476;2023-07-29T04:23:33;18.60;99.90
42479;DHT22;28110;47.080;9.476;2023-07-29T04:25:58;18.60;99.90
42479;DHT22;28110;47.080;9.476;2023-07-29T04:28:24;18.70;99.90
42479;DHT22;28110;47.080;9.476;2023-07-29T04:30:49;18.80;99.90
42479;DHT22;28110;47.080;9.476;2023-07-29T04:33:15;18.80;99.90
42479;DHT22;28110;47.080;9.476;2023-07-29T04:35:41;18.80;99.90
42479;DHT22;28110;47.080;9.476;2023-07-29T04:38:06;18.80;99.90
42479;DHT22;28110;47.080;9.476;2023-07-29T04:40:34;18.70;99.90
42479;DHT22;28110;47.080;9.476;2023-07-29T04:43:01;18.70;99.90
42479;DHT22;28110;47.080;9.476;2023-07-29T04:45:30;18.60;99.90
42479;DHT22;28110;47.080;9.476;2023-07-29T04:47:56;18.50;99.90
42479;DHT22;28110;47.080;9.476;2023-07-29T04:50:22;18.50;99.90
42479;DHT22;28110;47.080;9.476;2023-07-29T04:52:47;18.40;99.90
42479;DHT22;28110;47.080;9.476;2023-07-29T04:55:13;18.40;99.90
42479;DHT22;28110;47.080;9.476;2023-07-29T04:57:38;18.30;99.90
42479;DHT22;28110;47.080;9.476;2023-07-29T05:00:04;18.30;99.90
42479;DHT22;28110;47.080;9.476;2023-07-29T05:02:30;18.20;99.90
42479;DHT22;28110;47.080;9.476;2023-07-29T05:04:55;18.20;99.90
42479;DHT22;28110;47.080;9.476;2023-07-29T05:07:21;18.20;99.90
42479;DHT22;28110;47.080;9.476;2023-07-29T05:09:48;18.20;99.90
42479;DHT22;28110;47.080;9.476;2023-07-29T05:12:13;18.20;99.90
42479;DHT22;28110;47.080;9.476;2023-07-29T05:14:39;18.20;99.90
42479;DHT22;28110;47.080;9.476;2023-07-29T05:17:05;18.20;99.90
42479;DHT22;28110;47.080;9.476;2023-07-29T05:19:31;18.20;99.90
42479;DHT22;28110;47.080;9.476;2023-07-29T05:21:56;18.20;99.90
42479;DHT22;28110;47.080;9.476;2023-07-29T05:24:23;18.30;99.90
42479;DHT22;28110;47.080;9.476;2023-07-29T05:26:49;18.40;99.90
42479;DHT22;28110;47.080;9.476;2023-07-29T05:29:14;18.40;99.90
42479;DHT22;28110;47.080;9.476;2023-07-29T05:31:40;18.40;99.90
42479;DHT22;28110;47.080;9.476;2023-07-29T05:34:06;18.50;99.90
42479;DHT22;28110;47.080;9.476;2023-07-29T05:36:31;18.60;99.90
42479;DHT22;28110;47.080;9.476;2023-07-29T05:38:57;18.70;99.90
42479;DHT22;28110;47.080;9.476;2023-07-29T05:41:22;18.80;99.90
42479;DHT22;28110;47.080;9.476;2023-07-29T05:43:48;18.80;99.90
42479;DHT22;28110;47.080;9.476;2023-07-29T05:46:13;18.90;99.90
42479;DHT22;28110;47.080;9.476;2023-07-29T05:48:39;18.90;99.90
42479;DHT22;28110;47.080;9.476;2023-07-29T05:51:04;18.90;99.90
42479;DHT22;28110;47.080;9.476;2023-07-29T05:53:33;19.00;99.90
42479;DHT22;28110;47.080;9.476;2023-07-29T05:55:58;19.00;99.90
42479;DHT22;28110;47.080;9.476;2023-07-29T05:58:24;19.00;99.90
42479;DHT22;28110;47.080;9.476;2023-07-29T06:00:49;19.00;99.90
42479;DHT22;28110;47.080;9.476;2023-07-29T06:03:15;19.10;99.90
42479;DHT22;28110;47.080;9.476;2023-07-29T06:05:40;19.10;99.90
42479;DHT22;28110;47.080;9.476;2023-07-29T06:08:06;19.10;99.90
42479;DHT22;28110;47.080;9.476;2023-07-29T06:10:33;19.30;99.90
42479;DHT22;28110;47.080;9.476;2023-07-29T06:12:59;19.50;99.90
42479;DHT22;28110;47.080;9.476;2023-07-29T06:15:24;19.70;99.90
42479;DHT22;28110;47.080;9.476;2023-07-29T06:17:50;19.80;99.90
42479;DHT22;28110;47.080;9.476;2023-07-29T06:20:16;20.00;99.90
42479;DHT22;28110;47.080;9.476;2023-07-29T06:22:41;20.00;99.90
42479;DHT22;28110;47.080;9.476;2023-07-29T06:25:08;20.00;99.90
42479;DHT22;28110;47.080;9.476;2023-07-29T06:27:34;20.00;99.90
42479;DHT22;28110;47.080;9.476;2023-07-29T06:29:59;20.00;99.90
42479;DHT22;28110;47.080;9.476;2023-07-29T06:32:25;20.00;99.90
42479;DHT22;28110;47.080;9.476;2023-07-29T06:34:50;20.00;99.90
42479;DHT22;28110;47.080;9.476;2023-07-29T06:37:17;19.90;99.90
42479;DHT22;28110;47.080;9.476;2023-07-29T06:39:42;19.90;99.90
42479;DHT22;28110;47.080;9.476;2023-07-29T06:42:08;19.90;99.90
42479;DHT22;28110;47.080;9.476;2023-07-29T06:44:33;19.90;99.90
42479;DHT22;28110;47.080;9.476;2023-07-29T06:46:59;20.00;99.90
42479;DHT22;28110;47.080;9.476;2023-07-29T06:49:24;19.90;99.90
42479;DHT22;28110;47.080;9.476;2023-07-29T06:51:50;19.90;99.90
42479;DHT22;28110;47.080;9.476;2023-07-29T06:54:16;19.90;99.90
42479;DHT22;28110;47.080;9.476;2023-07-29T06:56:42;20.00;99.90
42479;DHT22;28110;47.080;9.476;2023-07-29T06:59:08;19.90;99.90
42479;DHT22;28110;47.080;9.476;2023-07-29T07:01:34;19.90;99.90
42479;DHT22;28110;47.080;9.476;2023-07-29T07:03:59;19.80;99.90
42479;DHT22;28110;47.080;9.476;2023-07-29T07:06:25;19.90;99.90
42479;DHT22;28110;47.080;9.476;2023-07-29T07:08:51;19.90;99.90
42479;DHT22;28110;47.080;9.476;2023-07-29T07:11:19;20.00;99.90
42479;DHT22;28110;47.080;9.476;2023-07-29T07:13:44;19.90;99.90
42479;DHT22;28110;47.080;9.476;2023-07-29T07:16:10;19.90;99.90
42479;DHT22;28110;47.080;9.476;2023-07-29T07:18:35;19.90;99.90
42479;DHT22;28110;47.080;9.476;2023-07-29T07:21:01;20.00;99.90
42479;DHT22;28110;47.080;9.476;2023-07-29T07:23:26;20.00;99.90
42479;DHT22;28110;47.080;9.476;2023-07-29T07:25:52;20.10;99.90
42479;DHT22;28110;47.080;9.476;2023-07-29T07:28:17;20.30;99.90
42479;DHT22;28110;47.080;9.476;2023-07-29T07:30:43;20.40;99.90
42479;DHT22;28110;47.080;9.476;2023-07-29T07:33:09;20.60;99.90
42479;DHT22;28110;47.080;9.476;2023-07-29T07:35:34;20.60;99.90
42479;DHT22;28110;47.080;9.476;2023-07-29T07:38:00;20.60;99.90
42479;DHT22;28110;47.080;9.476;2023-07-29T07:40:27;20.60;99.90
42479;DHT22;28110;47.080;9.476;2023-07-29T07:42:53;20.50;99.90
42479;DHT22;28110;47.080;9.476;2023-07-29T07:45:19;20.50;99.90
42479;DHT22;28110;47.080;9.476;2023-07-29T07:47:44;20.50;99.90
42479;DHT22;28110;47.080;9.476;2023-07-29T07:50:10;20.50;99.90
42479;DHT22;28110;47.080;9.476;2023-07-29T07:52:36;20.50;99.90
42479;DHT22;28110;47.080;9.476;2023-07-29T07:55:02;20.40;99.90
42479;DHT22;28110;47.080;9.476;2023-07-29T07:57:27;20.50;99.90
42479;DHT22;28110;47.080;9.476;2023-07-29T07:59:53;20.50;99.90
42479;DHT22;28110;47.080;9.476;2023-07-29T08:02:19;20.50;99.90
42479;DHT22;28110;47.080;9.476;2023-07-29T08:04:45;20.60;99.90
42479;DHT22;28110;47.080;9.476;2023-07-29T08:07:11;20.60;99.90
42479;DHT22;28110;47.080;9.476;2023-07-29T08:09:36;20.70;99.90
42479;DHT22;28110;47.080;9.476;2023-07-29T08:12:02;20.70;99.90
42479;DHT22;28110;47.080;9.476;2023-07-29T08:14:27;20.70;99.90
42479;DHT22;28110;47.080;9.476;2023-07-29T08:16:53;20.70;99.90
42479;DHT22;28110;47.080;9.476;2023-07-29T08:19:18;20.70;99.90
42479;DHT22;28110;47.080;9.476;2023-07-29T08:21:44;20.70;99.90
42479;DHT22;28110;47.080;9.476;2023-07-29T08:24:09;20.80;99.90
42479;DHT22;28110;47.080;9.476;2023-07-29T08:26:35;20.80;99.90
42479;DHT22;28110;47.080;9.476;2023-07-29T08:29:00;21.00;99.90
42479;DHT22;28110;47.080;9.476;2023-07-29T08:31:26;21.30;99.90
42479;DHT22;28110;47.080;9.476;2023-07-29T08:33:52;21.60;99.90
42479;DHT22;28110;47.080;9.476;2023-07-29T08:36:17;22.00;99.90
42479;DHT22;28110;47.080;9.476;2023-07-29T08:38:43;22.30;99.90
42479;DHT22;28110;47.080;9.476;2023-07-29T08:41:19;22.60;99.90
42479;DHT22;28110;47.080;9.476;2023-07-29T08:44:12;22.80;99.90
42479;DHT22;28110;47.080;9.476;2023-07-29T08:46:39;22.90;99.90
42479;DHT22;28110;47.080;9.476;2023-07-29T08:49:05;23.00;99.90
42479;DHT22;28110;47.080;9.476;2023-07-29T08:51:31;23.10;99.90
42479;DHT22;28110;47.080;9.476;2023-07-29T08:53:58;23.20;99.90
42479;DHT22;28110;47.080;9.476;2023-07-29T08:56:24;23.20;99.90
42479;DHT22;28110;47.080;9.476;2023-07-29T08:58:50;23.30;99.90
42479;DHT22;28110;47.080;9.476;2023-07-29T09:01:16;23.40;99.90
42479;DHT22;28110;47.080;9.476;2023-07-29T09:03:42;23.40;99.90
42479;DHT22;28110;47.080;9.476;2023-07-29T09:06:08;23.40;99.90
42479;DHT22;28110;47.080;9.476;2023-07-29T09:08:34;23.50;99.90
42479;DHT22;28110;47.080;9.476;2023-07-29T09:11:00;23.60;99.90
42479;DHT22;28110;47.080;9.476;2023-07-29T09:13:26;23.70;99.90
42479;DHT22;28110;47.080;9.476;2023-07-29T09:15:57;23.80;99.90
42479;DHT22;28110;47.080;9.476;2023-07-29T09:18:22;23.90;99.90
42479;DHT22;28110;47.080;9.476;2023-07-29T09:20:50;24.10;99.90
42479;DHT22;28110;47.080;9.476;2023-07-29T09:23:15;24.30;99.90
42479;DHT22;28110;47.080;9.476;2023-07-29T09:25:41;24.50;99.90
42479;DHT22;28110;47.080;9.476;2023-07-29T09:28:12;24.70;99.90
42479;DHT22;28110;47.080;9.476;2023-07-29T09:30:38;25.00;99.90
42479;DHT22;28110;47.080;9.476;2023-07-29T09:33:04;25.20;99.90
42479;DHT22;28110;47.080;9.476;2023-07-29T09:35:32;25.30;99.90
42479;DHT22;28110;47.080;9.476;2023-07-29T09:37:57;25.40;99.90
42479;DHT22;28110;47.080;9.476;2023-07-29T09:40:23;25.40;99.90
42479;DHT22;28110;47.080;9.476;2023-07-29T09:42:53;25.20;99.90
42479;DHT22;28110;47.080;9.476;2023-07-29T09:45:24;25.10;99.90
42479;DHT22;28110;47.080;9.476;2023-07-29T09:47:50;25.00;99.90
42479;DHT22;28110;47.080;9.476;2023-07-29T09:50:16;24.90;99.90
42479;DHT22;28110;47.080;9.476;2023-07-29T09:52:43;24.80;99.90
42479;DHT22;28110;47.080;9.476;2023-07-29T09:55:12;24.70;99.90
42479;DHT22;28110;47.080;9.476;2023-07-29T09:57:39;24.60;99.90
42479;DHT22;28110;47.080;9.476;2023-07-29T10:00:06;24.60;99.90
42479;DHT22;28110;47.080;9.476;2023-07-29T10:02:41;24.60;99.90
42479;DHT22;28110;47.080;9.476;2023-07-29T10:05:08;24.80;99.90
42479;DHT22;28110;47.080;9.476;2023-07-29T10:07:37;24.90;99.90
42479;DHT22;28110;47.080;9.476;2023-07-29T10:10:05;25.20;99.90
42479;DHT22;28110;47.080;9.476;2023-07-29T10:12:31;25.40;99.90
42479;DHT22;28110;47.080;9.476;2023-07-29T10:15:03;25.50;99.90
42479;DHT22;28110;47.080;9.476;2023-07-29T10:17:29;25.50;99.90
42479;DHT22;28110;47.080;9.476;2023-07-29T10:19:56;25.50;99.90
42479;DHT22;28110;47.080;9.476;2023-07-29T10:22:25;25.50;99.90
42479;DHT22;28110;47.080;9.476;2023-07-29T10:24:56;25.50;99.90
42479;DHT22;28110;47.080;9.476;2023-07-29T10:27:24;25.60;99.90
42479;DHT22;28110;47.080;9.476;2023-07-29T10:29:50;25.70;99.90
42479;DHT22;28110;47.080;9.476;2023-07-29T10:32:17;25.80;99.90
42479;DHT22;28110;47.080;9.476;2023-07-29T10:34:45;25.80;99.90
42479;DHT22;28110;47.080;9.476;2023-07-29T10:37:11;25.90;99.90
42479;DHT22;28110;47.080;9.476;2023-07-29T10:39:40;25.80;99.90
42479;DHT22;28110;47.080;9.476;2023-07-29T10:42:07;25.70;99.90
42479;DHT22;28110;47.080;9.476;2023-07-29T10:49:54;25.60;99.90
42479;DHT22;28110;47.080;9.476;2023-07-29T10:55:01;25.60;99.90
42479;DHT22;28110;47.080;9.476;2023-07-29T10:57:35;25.60;99.90
42479;DHT22;28110;47.080;9.476;2023-07-29T11:00:03;25.70;99.90
42479;DHT22;28110;47.080;9.476;2023-07-29T11:02:31;25.80;99.90
42479;DHT22;28110;47.080;9.476;2023-07-29T11:04:57;26.00;99.90
42479;DHT22;28110;47.080;9.476;2023-07-29T11:07:24;26.00;99.90
42479;DHT22;28110;47.080;9.476;2023-07-29T11:10:02;26.10;99.90
42479;DHT22;28110;47.080;9.476;2023-07-29T11:15:12;26.20;99.90
42479;DHT22;28110;47.080;9.476;2023-07-29T11:20:19;26.30;99.90
42479;DHT22;28110;47.080;9.476;2023-07-29T11:22:45;26.40;99.90
42479;DHT22;28110;47.080;9.476;2023-07-29T11:25:12;26.50;99.90
42479;DHT22;28110;47.080;9.476;2023-07-29T11:27:39;26.50;99.90
42479;DHT22;28110;47.080;9.476;2023-07-29T11:30:06;26.50;99.90
42479;DHT22;28110;47.080;9.476;2023-07-29T11:32:32;26.50;99.90
42479;DHT22;28110;47.080;9.476;2023-07-29T11:35:03;26.40;99.90
42479;DHT22;28110;47.080;9.476;2023-07-29T11:37:29;26.20;99.90
42479;DHT22;28110;47.080;9.476;2023-07-29T11:39:55;26.00;99.90
42479;DHT22;28110;47.080;9.476;2023-07-29T11:42:21;25.90;99.90
42479;DHT22;28110;47.080;9.476;2023-07-29T11:44:46;25.90;99.90
42479;DHT22;28110;47.080;9.476;2023-07-29T11:47:12;25.90;99.90
42479;DHT22;28110;47.080;9.476;2023-07-29T11:49:39;26.00;99.90
42479;DHT22;28110;47.080;9.476;2023-07-29T11:52:09;26.00;99.90
42479;DHT22;28110;47.080;9.476;2023-07-29T11:54:36;26.00;99.90
42479;DHT22;28110;47.080;9.476;2023-07-29T11:57:08;26.10;99.90
42479;DHT22;28110;47.080;9.476;2023-07-29T11:59:35;26.20;99.90
42479;DHT22;28110;47.080;9.476;2023-07-29T12:02:01;26.20;99.90
42479;DHT22;28110;47.080;9.476;2023-07-29T12:04:29;26.20;99.90
42479;DHT22;28110;47.080;9.476;2023-07-29T12:06:55;26.20;99.90
42479;DHT22;28110;47.080;9.476;2023-07-29T12:09:21;26.30;99.90
42479;DHT22;28110;47.080;9.476;2023-07-29T12:11:47;26.30;99.90
42479;DHT22;28110;47.080;9.476;2023-07-29T12:14:13;26.40;99.90
42479;DHT22;28110;47.080;9.476;2023-07-29T12:16:43;26.50;99.90
42479;DHT22;28110;47.080;9.476;2023-07-29T12:19:08;26.50;99.90
42479;DHT22;28110;47.080;9.476;2023-07-29T12:21:34;26.50;99.90
42479;DHT22;28110;47.080;9.476;2023-07-29T12:24:01;26.60;99.90
42479;DHT22;28110;47.080;9.476;2023-07-29T12:26:28;26.60;99.90
42479;DHT22;28110;47.080;9.476;2023-07-29T12:28:54;26.70;99.90
42479;DHT22;28110;47.080;9.476;2023-07-29T12:31:19;26.70;99.90
42479;DHT22;28110;47.080;9.476;2023-07-29T12:33:45;26.80;99.90
42479;DHT22;28110;47.080;9.476;2023-07-29T12:36:10;26.70;99.90
42479;DHT22;28110;47.080;9.476;2023-07-29T12:38:36;26.60;99.90
42479;DHT22;28110;47.080;9.476;2023-07-29T12:41:01;26.60;99.90
42479;DHT22;28110;47.080;9.476;2023-07-29T12:43:28;26.50;99.90
42479;DHT22;28110;47.080;9.476;2023-07-29T12:45:54;26.40;99.90
42479;DHT22;28110;47.080;9.476;2023-07-29T12:48:19;26.40;99.90
42479;DHT22;28110;47.080;9.476;2023-07-29T12:50:45;26.30;99.90
42479;DHT22;28110;47.080;9.476;2023-07-29T12:53:11;26.20;99.90
42479;DHT22;28110;47.080;9.476;2023-07-29T12:55:37;26.20;99.90
42479;DHT22;28110;47.080;9.476;2023-07-29T12:58:03;26.20;99.90
42479;DHT22;28110;47.080;9.476;2023-07-29T13:00:29;26.10;99.90
42479;DHT22;28110;47.080;9.476;2023-07-29T13:02:54;26.10;99.90
42479;DHT22;28110;47.080;9.476;2023-07-29T13:05:20;26.00;99.90
42479;DHT22;28110;47.080;9.476;2023-07-29T13:07:45;25.60;99.90
42479;DHT22;28110;47.080;9.476;2023-07-29T13:10:11;24.60;99.90
42479;DHT22;28110;47.080;9.476;2023-07-29T13:12:37;23.70;99.90
42479;DHT22;28110;47.080;9.476;2023-07-29T13:15:03;23.00;99.90
42479;DHT22;28110;47.080;9.476;2023-07-29T13:17:29;22.80;99.90
42479;DHT22;28110;47.080;9.476;2023-07-29T13:19:54;22.70;99.90
42479;DHT22;28110;47.080;9.476;2023-07-29T13:22:20;22.60;99.90
42479;DHT22;28110;47.080;9.476;2023-07-29T13:24:46;22.50;99.90
42479;DHT22;28110;47.080;9.476;2023-07-29T13:27:12;22.40;99.90
42479;DHT22;28110;47.080;9.476;2023-07-29T13:29:37;22.30;99.90
42479;DHT22;28110;47.080;9.476;2023-07-29T13:32:03;22.40;99.90
42479;DHT22;28110;47.080;9.476;2023-07-29T13:34:29;22.50;99.90
42479;DHT22;28110;47.080;9.476;2023-07-29T13:36:54;22.70;99.90
42479;DHT22;28110;47.080;9.476;2023-07-29T13:39:20;22.90;99.90
42479;DHT22;28110;47.080;9.476;2023-07-29T13:41:45;23.10;99.90
42479;DHT22;28110;47.080;9.476;2023-07-29T13:44:11;23.20;99.90
42479;DHT22;28110;47.080;9.476;2023-07-29T13:46:37;23.30;99.90
42479;DHT22;28110;47.080;9.476;2023-07-29T13:49:02;23.40;99.90
42479;DHT22;28110;47.080;9.476;2023-07-29T13:51:28;23.40;99.90
42479;DHT22;28110;47.080;9.476;2023-07-29T13:53:54;23.50;99.90
42479;DHT22;28110;47.080;9.476;2023-07-29T13:56:19;23.20;99.90
42479;DHT22;28110;47.080;9.476;2023-07-29T13:58:45;23.10;99.90
42479;DHT22;28110;47.080;9.476;2023-07-29T14:01:10;22.80;99.90
42479;DHT22;28110;47.080;9.476;2023-07-29T14:03:36;22.60;99.90
42479;DHT22;28110;47.080;9.476;2023-07-29T14:06:01;22.40;99.90
42479;DHT22;28110;47.080;9.476;2023-07-29T14:08:27;22.20;99.90
42479;DHT22;28110;47.080;9.476;2023-07-29T14:10:52;22.10;99.90
42479;DHT22;28110;47.080;9.476;2023-07-29T14:13:18;22.00;99.90
42479;DHT22;28110;47.080;9.476;2023-07-29T14:15:43;21.80;99.90
42479;DHT22;28110;47.080;9.476;2023-07-29T14:18:09;21.70;99.90
42479;DHT22;28110;47.080;9.476;2023-07-29T14:20:34;21.60;99.90
42479;DHT22;28110;47.080;9.476;2023-07-29T14:23:00;21.40;99.90
42479;DHT22;28110;47.080;9.476;2023-07-29T14:25:26;21.40;99.90
42479;DHT22;28110;47.080;9.476;2023-07-29T14:27:52;21.30;99.90
42479;DHT22;28110;47.080;9.476;2023-07-29T14:30:17;21.30;99.90
42479;DHT22;28110;47.080;9.476;2023-07-29T14:32:43;21.30;99.90
42479;DHT22;28110;47.080;9.476;2023-07-29T14:46:37;21.30;99.90
42479;DHT22;28110;47.080;9.476;2023-07-29T14:49:02;20.10;99.90
42479;DHT22;28110;47.080;9.476;2023-07-29T14:51:28;19.60;99.90
42479;DHT22;28110;47.080;9.476;2023-07-29T14:53:54;19.30;99.90
42479;DHT22;28110;47.080;9.476;2023-07-29T14:56:19;19.10;99.90
42479;DHT22;28110;47.080;9.476;2023-07-29T14:58:45;19.00;99.90
42479;DHT22;28110;47.080;9.476;2023-07-29T15:01:10;18.90;99.90
42479;DHT22;28110;47.080;9.476;2023-07-29T15:03:36;18.90;99.90
42479;DHT22;28110;47.080;9.476;2023-07-29T15:06:02;19.00;99.90
42479;DHT22;28110;47.080;9.476;2023-07-29T15:08:28;19.10;99.90
42479;DHT22;28110;47.080;9.476;2023-07-29T15:10:54;19.30;99.90
42479;DHT22;28110;47.080;9.476;2023-07-29T15:13:20;19.40;99.90
42479;DHT22;28110;47.080;9.476;2023-07-29T15:15:45;19.50;99.90
42479;DHT22;28110;47.080;9.476;2023-07-29T15:18:11;19.60;99.90
42479;DHT22;28110;47.080;9.476;2023-07-29T15:20:37;19.60;99.90
42479;DHT22;28110;47.080;9.476;2023-07-29T15:23:02;19.70;99.90
42479;DHT22;28110;47.080;9.476;2023-07-29T15:25:28;19.70;99.90
42479;DHT22;28110;47.080;9.476;2023-07-29T15:27:53;19.60;99.90
42479;DHT22;28110;47.080;9.476;2023-07-29T15:30:19;19.50;99.90
42479;DHT22;28110;47.080;9.476;2023-07-29T15:32:44;19.60;99.90
42479;DHT22;28110;47.080;9.476;2023-07-29T15:35:10;19.50;99.90
42479;DHT22;28110;47.080;9.476;2023-07-29T15:37:36;19.50;99.90
42479;DHT22;28110;47.080;9.476;2023-07-29T15:40:01;19.40;99.90
42479;DHT22;28110;47.080;9.476;2023-07-29T15:42:27;19.40;99.90
42479;DHT22;28110;47.080;9.476;2023-07-29T15:44:52;19.30;99.90
42479;DHT22;28110;47.080;9.476;2023-07-29T15:47:18;19.30;99.90
42479;DHT22;28110;47.080;9.476;2023-07-29T15:49:44;19.20;99.90
42479;DHT22;28110;47.080;9.476;2023-07-29T15:52:10;19.30;99.90
42479;DHT22;28110;47.080;9.476;2023-07-29T15:54:39;19.30;99.90
42479;DHT22;28110;47.080;9.476;2023-07-29T15:57:05;19.40;99.90